You are listening to:
Miami FSS/Misc - Miami, Florida, United States

KMIA 270953Z 00000KT 10SM FEW044 15/12 A3014 RMK AO2 SLP205 T01500117 $

If stream doesn't start automatically press the play button
If stream stops then reload player then press play